Time;durP1;ratioP1;P1;durP2;ratioP2;P2;SDS_P1;SDS_P2;PMS_P1;PMS_P2;Temp;Humidity;BMP_temperature;BMP_pressure;BME280_temperature;BME280_humidity;BME280_pressure;Samples;Min_cycle;Max_cycle;Signal;HPM_P1;HPM_P2
2021/12/17 00:00:24;;;;;;;16.43;10.60;;;19.50;78.40;;;;;;5094230;28;20285;-21
2021/12/17 00:03:18;;;;;;;15.23;11.07;;;19.50;78.40;;;;;;5112060;28;20335;-21
2021/12/17 00:08:18;;;;;;;14.97;10.87;;;19.40;78.70;;;;;;5112706;28;20197;-21
2021/12/17 00:10:48;;;;;;;15.47;10.77;;;19.40;79.00;;;;;;5111689;28;20200;-20
2021/12/17 00:13:14;;;;;;;15.87;11.00;;;19.40;78.90;;;;;;5110602;28;20197;-22
2021/12/17 00:15:41;;;;;;;14.97;10.43;;;19.40;79.10;;;;;;5109976;28;20192;-22
2021/12/17 00:18:32;;;;;;;14.43;10.47;;;19.40;79.20;;;;;;5110099;28;20205;-24
2021/12/17 00:43:56;;;;;;;14.37;10.10;;;19.20;80.00;;;;;;5113707;28;20221;-22
2021/12/17 00:48:39;;;;;;;15.43;11.10;;;19.20;80.40;;;;;;5115478;28;20277;-20
2021/12/17 00:53:53;;;;;;;15.13;10.13;;;19.20;80.60;;;;;;5116906;28;20202;-22
2021/12/17 00:56:18;;;;;;;14.37;10.27;;;19.20;80.70;;;;;;5116159;28;20271;-23
2021/12/17 00:58:44;;;;;;;14.43;10.17;;;19.10;80.70;;;;;;5097978;28;20519;-24
2021/12/17 01:01:10;;;;;;;14.17;10.00;;;19.10;80.80;;;;;;5114896;28;20202;-22
2021/12/17 01:03:36;;;;;;;13.33;10.53;;;19.10;80.90;;;;;;5114088;28;20213;-24
2021/12/17 01:06:02;;;;;;;15.13;10.30;;;19.10;81.00;;;;;;5096539;28;20206;-21
2021/12/17 01:08:28;;;;;;;13.27;9.53;;;19.10;80.90;;;;;;5097315;28;20191;-23
2021/12/17 01:10:55;;;;;;;13.30;10.03;;;19.10;81.00;;;;;;5097850;28;20258;-22
2021/12/17 01:13:22;;;;;;;16.17;10.77;;;19.10;81.10;;;;;;5097439;28;20196;-23
2021/12/17 01:15:48;;;;;;;13.27;10.03;;;19.10;81.30;;;;;;5115134;28;20328;-22
2021/12/17 01:18:19;;;;;;;13.60;10.17;;;19.10;81.30;;;;;;5096757;28;20198;-21
2021/12/17 01:23:59;;;;;;;15.43;10.13;;;19.00;81.40;;;;;;5113130;28;20323;-22
2021/12/17 01:42:27;;;;;;;13.40;9.50;;;19.00;81.80;;;;;;5115595;28;20229;-21
2021/12/17 01:44:53;;;;;;;13.60;9.83;;;19.00;81.90;;;;;;5114066;28;20276;-20
2021/12/17 01:47:18;;;;;;;13.30;9.87;;;18.90;81.80;;;;;;5113058;28;20205;-22
2021/12/17 02:00:41;;;;;;;12.33;9.50;;;18.90;82.10;;;;;;5115101;28;20199;-22
2021/12/17 02:03:09;;;;;;;14.10;9.63;;;18.90;82.20;;;;;;5114370;28;20281;-21
2021/12/17 02:05:35;;;;;;;13.73;10.13;;;18.90;82.30;;;;;;5096099;28;20196;-22
2021/12/17 02:08:02;;;;;;;14.60;10.30;;;18.90;82.90;;;;;;5113729;28;20686;-21
2021/12/17 02:19:28;;;;;;;14.37;10.07;;;18.80;82.20;;;;;;5112204;28;20181;-22
2021/12/17 02:32:14;;;;;;;12.83;9.57;;;18.80;82.70;;;;;;5112463;28;20362;-23
2021/12/17 02:37:29;;;;;;;13.53;10.10;;;18.80;82.90;;;;;;5113229;28;20288;-23
2021/12/17 02:47:43;;;;;;;12.17;9.00;;;18.70;82.90;;;;;;5113978;28;20467;-23
2021/12/17 02:50:11;;;;;;;11.60;8.97;;;18.70;83.10;;;;;;5096055;28;20586;-21
2021/12/17 02:52:38;;;;;;;13.93;9.97;;;18.70;83.20;;;;;;5115213;28;20209;-22
2021/12/17 02:55:07;;;;;;;11.27;8.63;;;18.70;83.20;;;;;;5112080;28;20610;-22
2021/12/17 02:57:34;;;;;;;11.57;9.37;;;18.70;83.20;;;;;;5094654;28;20587;-22
2021/12/17 03:00:04;;;;;;;12.17;9.33;;;18.70;83.30;;;;;;5094482;28;20590;-24
2021/12/17 03:02:31;;;;;;;13.97;9.57;;;18.70;84.00;;;;;;5113416;28;20271;-24
2021/12/17 03:04:57;;;;;;;12.37;9.13;;;18.70;83.40;;;;;;5096443;28;20475;-23
2021/12/17 03:07:23;;;;;;;12.97;9.20;;;18.70;83.40;;;;;;5113400;28;20478;-22
2021/12/17 03:10:12;;;;;;;13.93;9.70;;;18.60;83.40;;;;;;5096947;28;20189;-19
2021/12/17 03:12:46;;;;;;;13.77;9.40;;;18.60;83.50;;;;;;5112936;28;20197;-22
2021/12/17 03:23:42;;;;;;;13.37;9.63;;;18.60;83.50;;;;;;5111533;28;20213;-21
2021/12/17 03:26:15;;;;;;;12.73;9.50;;;18.60;83.60;;;;;;5114151;28;20188;-22
2021/12/17 03:28:44;;;;;;;13.50;9.50;;;18.60;83.90;;;;;;5095964;28;20194;-21
2021/12/17 03:31:11;;;;;;;11.37;9.03;;;18.60;83.80;;;;;;5113529;28;20205;-22
2021/12/17 03:33:41;;;;;;;13.63;9.63;;;18.60;83.90;;;;;;5095295;28;20200;-19
2021/12/17 03:36:08;;;;;;;13.13;9.53;;;18.60;83.90;;;;;;5095887;28;20193;-22
2021/12/17 03:38:33;;;;;;;11.80;9.10;;;18.50;83.80;;;;;;5112775;28;20515;-21
2021/12/17 03:43:55;;;;;;;15.20;10.07;;;18.50;84.10;;;;;;5094385;28;20214;-23
2021/12/17 03:46:21;;;;;;;12.10;8.87;;;18.50;84.20;;;;;;5112116;28;20186;-22
2021/12/17 03:48:47;;;;;;;12.03;9.27;;;18.50;84.30;;;;;;5113475;28;20282;-20
2021/12/17 03:51:17;;;;;;;13.77;9.23;;;18.40;84.50;;;;;;5113925;28;20199;-22
2021/12/17 03:53:51;;;;;;;13.30;9.40;;;18.40;84.60;;;;;;5094865;28;20236;-20
2021/12/17 03:56:17;;;;;;;12.33;9.17;;;18.40;84.70;;;;;;5113984;28;20200;-23
2021/12/17 03:58:43;;;;;;;11.90;9.23;;;18.40;84.80;;;;;;5095712;28;20207;-23
2021/12/17 04:01:10;;;;;;;12.17;9.53;;;18.40;84.90;;;;;;5115051;28;20186;-23
2021/12/17 04:03:36;;;;;;;11.77;8.87;;;18.40;84.90;;;;;;5115444;28;20221;-24
2021/12/17 04:06:03;;;;;;;12.23;9.00;;;18.30;85.00;;;;;;5096803;28;20203;-20
2021/12/17 04:08:29;;;;;;;12.63;7.90;;;20.30;73.40;;;;;;5097995;28;20373;-22
2021/12/17 04:11:03;;;;;;;11.17;8.07;;;22.50;58.60;;;;;;5098374;28;20203;-22
2021/12/17 04:13:33;;;;;;;12.73;8.60;;;22.70;56.50;;;;;;5098658;28;20311;-21
2021/12/17 04:16:04;;;;;;;11.73;8.80;;;22.70;56.20;;;;;;5116814;28;20197;-22
2021/12/17 04:18:31;;;;;;;12.03;8.60;;;22.90;55.80;;;;;;5117308;28;20205;-21
2021/12/17 04:20:59;;;;;;;12.57;8.53;;;23.20;54.90;;;;;;5116338;28;20201;-22
2021/12/17 04:23:25;;;;;;;11.37;8.30;;;23.50;54.00;;;;;;5098714;28;20221;-22
2021/12/17 04:25:51;;;;;;;11.57;8.73;;;23.70;53.40;;;;;;5114289;28;20209;-23
2021/12/17 04:28:19;;;;;;;11.67;8.17;;;23.70;53.20;;;;;;5096470;28;20193;-21
2021/12/17 04:30:45;;;;;;;11.03;8.07;;;23.80;53.10;;;;;;5113619;28;20626;-21
2021/12/17 04:33:12;;;;;;;12.83;8.90;;;23.90;52.90;;;;;;5115743;28;20262;-23
2021/12/17 04:35:39;;;;;;;10.33;8.33;;;24.20;52.40;;;;;;5098372;28;20642;-23
2021/12/17 04:38:06;;;;;;;11.57;8.47;;;24.40;51.80;;;;;;5097620;28;20255;-22
2021/12/17 04:40:33;;;;;;;12.20;8.40;;;24.40;51.60;;;;;;5116062;28;20583;-23
2021/12/17 04:45:27;;;;;;;12.70;8.97;;;24.40;51.70;;;;;;5115571;28;20189;-20
2021/12/17 04:58:51;;;;;;;10.03;7.87;;;23.30;53.50;;;;;;5115239;28;20193;-21
2021/12/17 05:01:17;;;;;;;11.50;8.53;;;23.00;54.40;;;;;;5116115;28;20471;-22
2021/12/17 05:03:43;;;;;;;11.43;8.47;;;22.70;55.10;;;;;;5115877;28;20648;-20
2021/12/17 05:06:08;;;;;;;11.30;8.40;;;22.50;55.80;;;;;;5115766;28;20218;-23
2021/12/17 05:08:35;;;;;;;10.47;8.03;;;22.30;56.60;;;;;;5097819;28;20236;-23
2021/12/17 05:19:35;;;;;;;10.97;8.17;;;21.40;60.30;;;;;;5114254;28;20617;-21
2021/12/17 05:22:05;;;;;;;9.77;8.10;;;21.30;61.80;;;;;;5114159;28;20221;-20
2021/12/17 05:24:31;;;;;;;10.93;7.77;;;21.10;63.20;;;;;;5113751;28;20236;-22
2021/12/17 05:26:56;;;;;;;11.07;8.27;;;20.90;64.50;;;;;;5096257;28;20668;-22
2021/12/17 05:29:22;;;;;;;10.03;7.87;;;20.90;65.40;;;;;;5096232;28;20529;-23
2021/12/17 05:31:47;;;;;;;10.63;8.27;;;20.80;66.10;;;;;;5113816;28;20185;-22
2021/12/17 05:34:13;;;;;;;11.43;8.03;;;20.70;67.00;;;;;;5112736;28;20212;-22
2021/12/17 05:36:39;;;;;;;10.60;8.07;;;20.60;67.70;;;;;;5112772;28;20213;-22
2021/12/17 05:39:04;;;;;;;11.80;8.30;;;20.50;68.50;;;;;;5093516;28;20197;-19
2021/12/17 05:41:30;;;;;;;11.63;8.30;;;20.40;69.30;;;;;;5113063;28;20182;-22
2021/12/17 05:43:57;;;;;;;10.10;7.80;;;20.30;70.00;;;;;;5113074;28;20266;-22
2021/12/17 05:46:38;;;;;;;10.57;8.13;;;20.20;70.80;;;;;;5112808;28;20185;-22
2021/12/17 05:49:05;;;;;;;10.20;8.17;;;20.10;71.50;;;;;;5095220;28;20453;-22
2021/12/17 05:51:31;;;;;;;10.90;8.20;;;20.10;72.50;;;;;;5112889;28;20194;-21
2021/12/17 05:53:58;;;;;;;11.20;8.20;;;20.00;73.00;;;;;;5112629;28;20656;-22
2021/12/17 05:56:23;;;;;;;9.87;7.70;;;19.90;73.60;;;;;;5111836;28;20190;-21
2021/12/17 05:58:49;;;;;;;12.27;7.97;;;19.90;74.00;;;;;;5110756;28;20180;-24
2021/12/17 06:01:14;;;;;;;10.93;8.17;;;20.10;73.10;;;;;;5110315;28;20234;-24
2021/12/17 06:03:40;;;;;;;10.30;7.97;;;20.30;71.30;;;;;;5110195;28;20494;-21
2021/12/17 06:06:06;;;;;;;9.73;7.57;;;20.60;68.70;;;;;;5092843;28;20194;-22
2021/12/17 06:08:32;;;;;;;9.73;7.73;;;21.10;64.90;;;;;;5111439;28;20298;-20
2021/12/17 06:10:58;;;;;;;10.07;8.07;;;21.70;61.30;;;;;;5093280;28;20199;-22
2021/12/17 06:13:24;;;;;;;9.87;8.00;;;22.20;58.60;;;;;;5111137;28;20193;-22
2021/12/17 06:15:49;;;;;;;10.47;7.80;;;22.80;56.50;;;;;;5092935;28;20236;-23
2021/12/17 06:18:15;;;;;;;9.60;7.60;;;23.40;54.90;;;;;;5093491;28;20230;-23
2021/12/17 06:20:41;;;;;;;12.30;8.00;;;23.80;53.60;;;;;;5108153;28;20197;-21
2021/12/17 06:23:06;;;;;;;9.73;7.43;;;23.90;52.90;;;;;;5107038;28;20583;-22
2021/12/17 06:25:32;;;;;;;9.93;6.87;;;24.00;52.60;;;;;;5109070;28;20194;-21
2021/12/17 06:27:58;;;;;;;10.77;7.80;;;23.90;52.40;;;;;;5110231;28;20182;-25
2021/12/17 06:30:24;;;;;;;9.03;7.30;;;23.80;52.60;;;;;;5091862;28;20198;-25
2021/12/17 06:32:49;;;;;;;9.90;7.60;;;23.60;52.80;;;;;;5091140;28;20285;-23
2021/12/17 06:35:16;;;;;;;9.00;7.23;;;23.40;53.70;;;;;;5109087;28;20305;-22
2021/12/17 06:37:43;;;;;;;10.43;7.43;;;23.20;53.80;;;;;;5091100;28;20460;-23
2021/12/17 06:40:10;;;;;;;10.23;8.20;;;23.00;54.40;;;;;;5109844;28;20194;-20
2021/12/17 06:42:36;;;;;;;12.93;7.80;;;22.80;54.80;;;;;;5108111;28;20229;-22
2021/12/17 06:45:07;;;;;;;9.97;7.57;;;22.50;55.50;;;;;;5089145;28;20189;-22
2021/12/17 06:47:35;;;;;;;10.73;7.77;;;22.40;56.10;;;;;;5105356;28;20591;-24
2021/12/17 07:01:05;;;;;;;9.67;7.80;;;21.50;59.70;;;;;;5108326;28;20575;-23
2021/12/17 07:06:38;;;;;;;9.93;7.37;;;21.00;63.20;;;;;;5106961;28;20215;-25
2021/12/17 07:17:07;;;;;;;10.30;8.13;;;20.60;66.20;;;;;;5108862;28;20185;-29
2021/12/17 07:17:24;;;;;;;11.43;8.60;;;20.30;69.00;;;;;;5109435;28;20243;-26
2021/12/17 07:20:49;;;;;;;10.20;7.87;;;20.20;70.10;;;;;;5108782;28;20166;-24
2021/12/17 07:33:06;;;;;;;10.63;7.57;;;20.50;68.20;;;;;;5108222;28;20190;-22
2021/12/17 07:35:50;;;;;;;11.43;7.63;;;21.00;64.80;;;;;;5111452;28;20163;-24
2021/12/17 07:41:02;;;;;;;10.03;7.97;;;22.10;58.30;;;;;;5111773;28;20193;-22
2021/12/17 07:43:38;;;;;;;11.37;7.43;;;22.70;56.40;;;;;;5093577;28;20224;-22
2021/12/17 07:46:08;;;;;;;9.67;7.57;;;23.30;55.00;;;;;;5110705;28;20610;-23
2021/12/17 07:48:35;;;;;;;10.17;7.27;;;23.70;53.80;;;;;;5112233;28;20248;-22
2021/12/17 07:51:02;;;;;;;12.63;7.43;;;24.00;52.80;;;;;;5111283;28;20575;-24
2021/12/17 07:53:30;;;;;;;10.97;7.73;;;24.20;52.30;;;;;;5093901;28;20190;-21
2021/12/17 07:55:57;;;;;;;9.77;7.60;;;24.30;52.00;;;;;;5111259;28;20190;-23
2021/12/17 07:58:23;;;;;;;11.07;7.83;;;24.30;51.80;;;;;;5110819;28;20186;-23
2021/12/17 08:00:49;;;;;;;11.53;7.33;;;24.20;51.80;;;;;;5092615;28;20258;-24
2021/12/17 08:03:14;;;;;;;10.27;7.73;;;24.00;52.00;;;;;;5092876;28;20493;-23
2021/12/17 08:05:42;;;;;;;10.60;7.33;;;23.80;52.30;;;;;;5111614;28;20352;-22
2021/12/17 08:08:09;;;;;;;10.33;7.40;;;23.60;52.80;;;;;;5112475;28;20205;-22
2021/12/17 08:10:35;;;;;;;10.07;8.10;;;23.30;53.50;;;;;;5093376;28;20186;-22
2021/12/17 08:13:01;;;;;;;12.53;8.10;;;23.20;54.10;;;;;;5093816;28;20209;-22
2021/12/17 08:15:35;;;;;;;11.37;7.67;;;22.90;54.70;;;;;;5093441;28;20207;-22
2021/12/17 08:26:27;;;;;;;20.33;8.83;;;22.20;57.90;;;;;;5111387;28;20243;-22
2021/12/17 08:29:06;;;;;;;14.70;8.47;;;22.00;58.80;;;;;;5111082;28;20347;-22
2021/12/17 08:31:34;;;;;;;17.40;8.93;;;21.70;60.00;;;;;;5110619;28;20561;-21
2021/12/17 08:34:02;;;;;;;16.93;8.77;;;21.50;62.10;;;;;;5110052;28;20601;-22
2021/12/17 08:36:28;;;;;;;16.03;8.23;;;21.40;63.20;;;;;;5111897;28;20195;-21
2021/12/17 08:38:54;;;;;;;16.80;9.23;;;21.20;64.90;;;;;;5092953;28;20194;-23
2021/12/17 08:41:21;;;;;;;16.17;8.63;;;21.00;66.70;;;;;;5112071;28;20278;-21
2021/12/17 08:43:48;;;;;;;15.10;8.27;;;20.80;68.60;;;;;;5110469;28;20210;-25
2021/12/17 08:46:14;;;;;;;16.37;9.13;;;20.60;70.20;;;;;;5091836;28;20197;-22
2021/12/17 08:48:40;;;;;;;16.07;8.30;;;20.50;71.50;;;;;;5093701;28;20187;-23
2021/12/17 08:51:08;;;;;;;15.03;8.60;;;20.40;72.50;;;;;;5111684;28;20272;-21
2021/12/17 08:53:35;;;;;;;15.00;7.80;;;20.20;73.50;;;;;;5092610;28;20448;-25
2021/12/17 08:56:02;;;;;;;14.70;8.40;;;20.20;74.30;;;;;;5092545;28;20201;-23
2021/12/17 08:58:28;;;;;;;12.13;7.93;;;20.10;75.00;;;;;;5092234;28;20201;-21
2021/12/17 09:00:53;;;;;;;12.57;7.97;;;20.10;74.30;;;;;;5110266;28;20194;-22
2021/12/17 09:03:19;;;;;;;13.30;7.37;;;20.50;71.80;;;;;;5110565;28;20195;-21
2021/12/17 09:05:46;;;;;;;15.80;7.47;;;20.90;68.40;;;;;;5093051;28;20195;-21
2021/12/17 09:08:13;;;;;;;9.93;6.83;;;21.10;66.20;;;;;;5092231;28;20300;-21
2021/12/17 09:10:39;;;;;;;12.20;7.00;;;21.60;62.60;;;;;;5109778;28;20186;-21
2021/12/17 09:13:05;;;;;;;16.17;7.13;;;22.30;59.20;;;;;;5110774;28;20198;-19
2021/12/17 09:15:31;;;;;;;14.33;6.90;;;22.90;56.90;;;;;;5109679;28;20186;-22
2021/12/17 09:17:57;;;;;;;9.83;6.80;;;23.50;55.40;;;;;;5110805;28;20186;-25
2021/12/17 09:20:23;;;;;;;12.80;7.03;;;23.70;54.30;;;;;;5110493;28;20190;-21
2021/12/17 09:22:49;;;;;;;19.50;7.00;;;23.80;53.90;;;;;;5109558;28;20212;-22
2021/12/17 09:25:15;;;;;;;11.17;6.00;;;24.00;53.50;;;;;;5110217;28;20302;-21
2021/12/17 09:27:41;;;;;;;10.80;6.57;;;24.00;53.20;;;;;;5109508;28;20246;-22
2021/12/17 09:30:11;;;;;;;10.70;6.27;;;24.00;53.00;;;;;;5092449;28;20634;-24
2021/12/17 09:32:39;;;;;;;11.53;5.97;;;23.90;53.10;;;;;;5109217;28;20175;-20
2021/12/17 09:35:06;;;;;;;9.90;6.17;;;23.70;53.20;;;;;;5111693;28;20189;-21
2021/12/17 09:37:31;;;;;;;10.17;6.07;;;23.50;53.60;;;;;;5110738;28;20266;-22
2021/12/17 09:39:57;;;;;;;10.07;6.20;;;23.30;54.20;;;;;;5110708;28;20233;-22
2021/12/17 09:42:25;;;;;;;7.87;5.90;;;23.20;54.50;;;;;;5092805;28;20225;-21
2021/12/17 09:44:51;;;;;;;9.87;5.80;;;22.90;55.00;;;;;;5092367;28;20232;-24
2021/12/17 09:47:17;;;;;;;8.23;5.37;;;22.80;55.70;;;;;;5109826;28;20685;-20
2021/12/17 09:49:42;;;;;;;7.43;5.43;;;22.60;56.30;;;;;;5092741;28;20190;-21
2021/12/17 09:52:08;;;;;;;8.43;5.37;;;22.40;56.80;;;;;;5091607;28;20190;-22
2021/12/17 09:54:34;;;;;;;7.50;5.10;;;22.20;57.40;;;;;;5107532;28;20471;-23
2021/12/17 09:57:00;;;;;;;8.23;5.30;;;22.00;58.30;;;;;;5092579;28;20467;-21
2021/12/17 09:59:26;;;;;;;7.23;4.70;;;21.80;59.10;;;;;;5109460;28;20602;-22
2021/12/17 10:01:52;;;;;;;6.67;4.73;;;21.60;59.80;;;;;;5091741;28;20449;-21
2021/12/17 10:04:25;;;;;;;7.33;4.60;;;21.50;61.10;;;;;;5108410;28;20558;-21
2021/12/17 10:06:51;;;;;;;6.07;4.87;;;21.20;62.80;;;;;;5092645;28;20193;-24
2021/12/17 10:09:17;;;;;;;7.53;4.47;;;21.10;63.90;;;;;;5108964;28;20220;-24
2021/12/17 10:12:03;;;;;;;6.20;4.87;;;20.90;65.70;;;;;;5090068;28;20293;-21
2021/12/17 10:14:29;;;;;;;6.40;4.27;;;20.70;67.00;;;;;;5090251;28;20514;-22
2021/12/17 10:17:09;;;;;;;6.23;4.87;;;20.70;68.50;;;;;;5090679;28;20196;-23
2021/12/17 10:19:42;;;;;;;7.60;4.43;;;20.60;69.30;;;;;;5108136;28;20196;-21
2021/12/17 10:22:12;;;;;;;6.27;3.97;;;20.40;70.40;;;;;;5108843;28;20213;-23
2021/12/17 10:24:43;;;;;;;6.47;4.47;;;20.30;71.70;;;;;;5108483;28;20213;-22
2021/12/17 10:27:25;;;;;;;5.63;4.23;;;20.20;72.40;;;;;;5089184;28;20468;-22
2021/12/17 10:29:52;;;;;;;6.37;3.83;;;20.40;71.20;;;;;;5090139;28;20538;-22
2021/12/17 10:32:23;;;;;;;5.27;3.97;;;20.70;69.00;;;;;;5108697;28;20468;-22
2021/12/17 10:35:11;;;;;;;4.97;3.63;;;21.20;65.00;;;;;;5107946;28;20193;-22
2021/12/17 10:37:59;;;;;;;4.20;3.80;;;21.70;61.00;;;;;;5090095;28;20600;-22
2021/12/17 10:40:29;;;;;;;5.63;3.63;;;22.20;59.00;;;;;;5103549;28;20202;-24
2021/12/17 10:43:28;;;;;;;5.27;3.37;;;22.60;57.30;;;;;;5108095;28;20225;-23
2021/12/17 10:46:06;;;;;;;5.13;3.60;;;22.90;56.20;;;;;;5108139;28;20194;-21
2021/12/17 10:51:12;;;;;;;4.43;3.50;;;23.50;54.50;;;;;;5108260;28;20273;-21
2021/12/17 10:53:38;;;;;;;4.17;3.23;;;23.60;53.80;;;;;;5107558;28;20273;-23
2021/12/17 10:56:03;;;;;;;4.90;3.40;;;23.70;53.30;;;;;;5108129;28;20635;-23
2021/12/17 10:58:29;;;;;;;5.07;3.50;;;23.70;53.30;;;;;;5089874;28;20547;-23
2021/12/17 11:00:58;;;;;;;4.07;3.47;;;23.60;53.30;;;;;;5106441;28;20190;-22
2021/12/17 11:03:24;;;;;;;4.63;3.23;;;23.40;53.60;;;;;;5107559;28;20214;-23
2021/12/17 11:05:50;;;;;;;4.30;3.23;;;23.20;54.00;;;;;;5106776;28;20590;-27
2021/12/17 11:08:28;;;;;;;4.33;3.10;;;23.00;54.50;;;;;;5087551;28;20204;-19
2021/12/17 11:11:00;;;;;;;3.97;3.17;;;22.80;55.00;;;;;;5087784;28;20225;-24
2021/12/17 11:13:26;;;;;;;4.07;3.03;;;22.60;55.50;;;;;;5106342;28;20185;-22
2021/12/17 11:15:53;;;;;;;3.30;3.00;;;22.50;56.40;;;;;;5088161;28;20212;-24
2021/12/17 11:18:19;;;;;;;4.07;2.67;;;22.20;56.70;;;;;;5107554;28;20749;-23
2021/12/17 11:20:46;;;;;;;4.07;3.10;;;22.10;57.20;;;;;;5079584;28;20202;-22
2021/12/17 11:23:14;;;;;;;4.30;2.77;;;21.90;57.80;;;;;;5097221;28;20206;-21
2021/12/17 11:25:48;;;;;;;4.77;3.07;;;21.80;58.50;;;;;;5114769;28;20574;-26
2021/12/17 11:28:15;;;;;;;2.90;2.60;;;21.60;59.10;;;;;;5096235;28;20191;-19
2021/12/17 11:30:45;;;;;;;4.57;2.63;;;21.50;59.80;;;;;;5096795;28;20289;-26
2021/12/17 11:33:14;;;;;;;3.33;2.70;;;21.40;60.70;;;;;;5096925;28;20231;-24
2021/12/17 11:35:42;;;;;;;2.90;2.60;;;21.30;61.60;;;;;;5092063;28;20201;-22
2021/12/17 11:38:11;;;;;;;2.90;2.57;;;21.20;62.60;;;;;;5076130;28;20214;-21
2021/12/17 11:40:51;;;;;;;2.53;2.33;;;21.00;63.90;;;;;;5076193;28;20595;-20
2021/12/17 11:43:30;;;;;;;5.00;2.77;;;20.80;65.50;;;;;;5090046;28;20208;-22
2021/12/17 11:46:01;;;;;;;2.93;2.40;;;20.70;66.60;;;;;;5095722;28;20197;-24
2021/12/17 11:48:30;;;;;;;4.40;2.50;;;20.50;68.10;;;;;;5114326;28;20213;-25
2021/12/17 11:51:15;;;;;;;3.20;2.57;;;20.30;69.90;;;;;;5096297;28;20734;-23
2021/12/17 11:53:56;;;;;;;3.80;2.80;;;20.30;70.30;;;;;;5113652;28;20208;-24
2021/12/17 11:56:33;;;;;;;3.07;2.47;;;20.60;68.30;;;;;;5113953;28;20648;-24
2021/12/17 11:58:59;;;;;;;3.37;2.60;;;21.10;65.20;;;;;;5096375;28;20181;-22
2021/12/17 12:01:57;;;;;;;3.07;2.57;;;21.70;60.60;;;;;;5095958;28;20202;-24
2021/12/17 12:04:32;;;;;;;3.83;2.30;;;22.10;58.40;;;;;;5113418;28;20195;-24
2021/12/17 12:07:25;;;;;;;2.70;2.17;;;22.10;58.00;;;;;;5095978;28;20192;-22
2021/12/17 12:10:04;;;;;;;2.67;2.17;;;21.80;58.50;;;;;;5113747;28;20266;-24
2021/12/17 12:12:41;;;;;;;3.73;2.03;;;21.60;59.30;;;;;;5095795;28;20275;-25
2021/12/17 12:15:28;;;;;;;2.13;1.90;;;21.40;60.20;;;;;;5095642;28;20207;-24
2021/12/17 12:17:57;;;;;;;3.03;2.30;;;21.20;61.30;;;;;;5095759;28;20204;-21
2021/12/17 12:20:40;;;;;;;2.53;2.10;;;21.00;62.60;;;;;;5095429;28;20258;-23
2021/12/17 12:23:27;;;;;;;2.10;1.90;;;20.90;63.30;;;;;;5098586;28;20221;-24
2021/12/17 12:26:05;;;;;;;2.20;2.00;;;21.10;62.50;;;;;;5116791;28;20196;-22
2021/12/17 12:28:41;;;;;;;3.07;2.20;;;21.60;59.30;;;;;;5099407;28;20197;-23
2021/12/17 12:31:07;;;;;;;2.00;1.80;;;22.30;57.40;;;;;;5116733;28;20502;-26
2021/12/17 12:33:32;;;;;;;3.50;2.00;;;22.70;55.50;;;;;;5098156;28;20210;-22
2021/12/17 12:35:58;;;;;;;2.50;2.10;;;22.80;55.10;;;;;;5116869;28;20288;-22
2021/12/17 12:38:33;;;;;;;2.83;1.90;;;22.90;54.80;;;;;;5116509;28;20198;-22
2021/12/17 12:41:03;;;;;;;1.70;1.60;;;23.00;54.50;;;;;;5116661;28;20499;-25
2021/12/17 12:43:35;;;;;;;2.20;1.90;;;23.10;54.00;;;;;;5116824;28;20206;-23
2021/12/17 12:46:00;;;;;;;2.33;1.70;;;23.20;53.60;;;;;;5116343;28;20220;-23
2021/12/17 12:48:39;;;;;;;2.00;1.80;;;23.30;53.40;;;;;;5098204;28;20170;-22
2021/12/17 12:51:20;;;;;;;2.87;1.63;;;23.20;53.50;;;;;;5098495;28;20198;-25
2021/12/17 12:54:05;;;;;;;2.50;1.87;;;23.10;53.60;;;;;;5116664;28;20269;-26
2021/12/17 12:56:32;;;;;;;1.90;1.57;;;22.90;53.90;;;;;;5116761;28;20190;-23
2021/12/17 12:58:57;;;;;;;1.90;1.67;;;22.80;54.30;;;;;;5116486;28;20217;-23
2021/12/17 13:01:23;;;;;;;2.43;1.60;;;22.60;54.70;;;;;;5116596;28;20232;-26
2021/12/17 13:03:49;;;;;;;2.30;1.63;;;22.50;55.20;;;;;;5097951;28;20214;-22
2021/12/17 13:06:18;;;;;;;2.80;1.90;;;22.30;55.60;;;;;;5115812;28;20185;-24
2021/12/17 13:08:56;;;;;;;1.63;1.53;;;22.20;56.10;;;;;;5114025;28;20174;-21
2021/12/17 13:11:22;;;;;;;1.80;1.70;;;21.90;56.80;;;;;;5116102;28;20190;-21
2021/12/17 13:13:54;;;;;;;2.20;1.53;;;21.80;57.50;;;;;;5103359;28;20205;-23
2021/12/17 13:21:57;;;;;;;2.87;1.93;;;21.20;59.60;;;;;;5109256;28;20284;-23
2021/12/17 13:24:32;;;;;;;2.33;1.70;;;21.10;60.30;;;;;;5108770;28;20516;-21
2021/12/17 13:27:10;;;;;;;1.80;1.53;;;21.00;61.20;;;;;;5089497;28;20254;-24
2021/12/17 13:29:40;;;;;;;2.50;1.60;;;20.90;61.90;;;;;;5107567;28;20196;-25
2021/12/17 13:32:09;;;;;;;1.80;1.60;;;20.80;62.60;;;;;;5107789;28;20198;-24
2021/12/17 13:34:43;;;;;;;2.37;1.80;;;20.80;63.10;;;;;;5108443;28;20213;-21
2021/12/17 13:37:16;;;;;;;2.33;1.60;;;20.80;63.10;;;;;;5091279;28;20208;-23
2021/12/17 13:39:58;;;;;;;2.10;1.70;;;20.90;61.80;;;;;;5076583;28;20289;-22
2021/12/17 13:42:30;;;;;;;1.83;1.60;;;21.00;61.40;;;;;;5088089;28;20209;-21
2021/12/17 13:44:59;;;;;;;1.73;1.63;;;21.30;59.80;;;;;;5088867;28;20243;-25
2021/12/17 13:47:32;;;;;;;3.73;1.70;;;21.60;58.50;;;;;;5070605;28;20206;-21
2021/12/17 13:50:20;;;;;;;2.20;1.57;;;21.90;57.30;;;;;;5073022;28;20331;-21
2021/12/17 13:52:54;;;;;;;2.00;1.50;;;22.00;57.10;;;;;;5077921;28;20195;-21
2021/12/17 13:55:41;;;;;;;2.80;1.77;;;22.20;56.50;;;;;;5093248;28;20192;-22
2021/12/17 13:58:13;;;;;;;1.97;1.77;;;22.40;56.00;;;;;;5088040;28;20432;-23
2021/12/17 14:00:46;;;;;;;2.53;1.70;;;22.70;55.30;;;;;;5089830;28;20221;-23
2021/12/17 14:03:14;;;;;;;2.17;1.80;;;22.90;54.60;;;;;;5070581;28;20231;-21
2021/12/17 14:05:41;;;;;;;4.20;1.60;;;23.10;54.20;;;;;;5088632;28;20400;-22
2021/12/17 14:08:13;;;;;;;2.40;1.63;;;23.00;54.00;;;;;;5069305;28;20330;-24
2021/12/17 14:10:41;;;;;;;2.23;1.80;;;23.10;53.90;;;;;;5088265;28;20198;-22
2021/12/17 14:13:19;;;;;;;3.13;1.90;;;23.10;53.80;;;;;;5070000;28;20218;-21
2021/12/17 14:15:46;;;;;;;1.90;1.60;;;23.10;53.70;;;;;;5068642;28;20428;-25
2021/12/17 14:18:19;;;;;;;2.57;1.70;;;23.10;53.70;;;;;;5068846;28;20217;-23
2021/12/17 14:21:02;;;;;;;4.00;2.10;;;23.00;54.00;;;;;;5087493;28;20171;-22
2021/12/17 14:23:30;;;;;;;3.07;1.73;;;22.90;54.20;;;;;;5089099;28;20314;-25
2021/12/17 14:25:57;;;;;;;3.53;1.83;;;22.70;54.60;;;;;;5087043;28;20610;-22
2021/12/17 14:28:27;;;;;;;2.83;2.07;;;22.50;55.00;;;;;;5087926;28;20493;-24
2021/12/17 14:31:09;;;;;;;5.30;1.80;;;22.50;55.80;;;;;;5088736;28;20187;-22
2021/12/17 14:33:39;;;;;;;3.27;2.10;;;22.20;55.80;;;;;;5088422;28;20187;-26
2021/12/17 14:36:07;;;;;;;2.83;2.03;;;22.00;56.30;;;;;;5070580;28;20657;-25
2021/12/17 14:38:40;;;;;;;4.13;2.30;;;21.90;56.80;;;;;;5070239;28;20237;-24
2021/12/17 14:41:11;;;;;;;4.03;2.27;;;21.70;57.40;;;;;;5088324;28;20182;-23
2021/12/17 14:44:02;;;;;;;5.67;2.57;;;21.50;58.10;;;;;;5087749;28;20215;-25
2021/12/17 14:46:49;;;;;;;4.37;2.47;;;21.30;58.90;;;;;;5070333;28;20476;-23
2021/12/17 15:05:27;;;;;;;4.20;3.23;;;21.00;60.10;;;;;;5085384;28;20229;-22
2021/12/17 15:07:54;;;;;;;5.17;3.60;;;21.20;59.30;;;;;;5084113;28;20226;-24
2021/12/17 15:10:23;;;;;;;6.40;3.50;;;21.30;58.70;;;;;;5087664;28;20528;-23
2021/12/17 15:12:50;;;;;;;5.00;3.20;;;21.60;57.90;;;;;;5068863;28;20206;-22
2021/12/17 15:15:23;;;;;;;5.87;3.30;;;21.90;56.70;;;;;;5085271;28;20198;-22
2021/12/17 15:17:51;;;;;;;5.07;3.40;;;22.10;55.90;;;;;;5087079;28;20186;-23
2021/12/17 15:20:40;;;;;;;5.60;3.50;;;22.20;55.50;;;;;;5088488;28;20326;-23
2021/12/17 15:23:06;;;;;;;5.43;3.77;;;22.30;55.20;;;;;;5106115;28;20225;-20
2021/12/17 15:25:33;;;;;;;4.33;3.37;;;22.30;55.00;;;;;;5107919;28;20452;-22
2021/12/17 15:27:59;;;;;;;5.93;3.67;;;22.40;54.90;;;;;;5089310;28;20194;-18
2021/12/17 15:30:29;;;;;;;4.30;3.67;;;22.50;54.70;;;;;;5112250;28;20197;-25
2021/12/17 15:32:55;;;;;;;4.53;3.43;;;22.60;54.30;;;;;;5113705;28;20783;-23
2021/12/17 15:35:23;;;;;;;3.80;3.13;;;22.80;53.90;;;;;;5109326;28;20613;-21
2021/12/17 15:37:50;;;;;;;5.83;3.63;;;22.80;53.80;;;;;;5107152;28;20556;-24
2021/12/17 15:40:17;;;;;;;5.33;3.50;;;22.70;53.80;;;;;;5106591;28;20218;-22
2021/12/17 15:42:43;;;;;;;5.53;3.90;;;22.60;53.90;;;;;;5107116;28;20210;-23
2021/12/17 15:45:11;;;;;;;4.87;3.60;;;22.50;54.20;;;;;;5107229;28;20270;-22
2021/12/17 15:47:36;;;;;;;5.67;3.27;;;22.40;54.50;;;;;;5107150;28;20194;-22
2021/12/17 15:50:05;;;;;;;3.80;3.30;;;22.20;54.80;;;;;;5088698;28;20203;-21
2021/12/17 15:52:33;;;;;;;5.20;3.70;;;22.10;55.40;;;;;;5087293;28;20349;-22
2021/12/17 15:54:59;;;;;;;6.20;3.60;;;21.90;55.80;;;;;;5106787;28;20196;-25
2021/12/17 15:57:26;;;;;;;6.00;3.40;;;21.80;56.40;;;;;;5109911;28;20197;-25
2021/12/17 15:59:54;;;;;;;5.23;3.40;;;21.60;56.90;;;;;;5111715;28;20196;-23
2021/12/17 16:02:19;;;;;;;6.57;3.90;;;21.40;57.50;;;;;;5091996;28;20221;-21